Time;durP1;ratioP1;P1;durP2;ratioP2;P2;SDS_P1;SDS_P2;PMS_P1;PMS_P2;Temp;Humidity;BMP_temperature;BMP_pressure;BME280_temperature;BME280_humidity;BME280_pressure;Samples;Min_cycle;Max_cycle;Signal;HPM_P1;HPM_P2
2022/04/03 00:00:10;;;;;;;6.40;3.10;;;1.20;99.90;;;1.97;64.49;-19794.00;5013424;28;20206;-57
2022/04/03 00:02:38;;;;;;;4.47;2.70;;;1.20;99.90;;;2.09;64.42;-19798.13;5014028;28;20318;-58
2022/04/03 00:05:09;;;;;;;4.77;2.53;;;1.20;99.90;;;1.98;64.37;-19794.34;5012971;28;20244;-57
2022/04/03 00:07:37;;;;;;;3.50;2.30;;;1.20;99.90;;;1.84;65.16;-19789.56;5013013;28;20725;-56
2022/04/03 00:10:06;;;;;;;5.63;2.47;;;1.10;99.90;;;1.59;66.19;-19781.03;5013230;28;20325;-58
2022/04/03 00:12:34;;;;;;;3.47;2.40;;;1.00;99.90;;;1.43;67.20;-19775.56;5013452;28;20313;-59
2022/04/03 00:15:02;;;;;;;5.23;2.10;;;0.90;99.90;;;1.71;67.38;-19785.13;5013814;28;20207;-57
2022/04/03 00:17:30;;;;;;;2.43;1.83;;;0.90;99.90;;;1.70;67.62;-19784.78;5013441;28;20302;-57
2022/04/03 00:19:58;;;;;;;3.80;2.20;;;0.90;99.90;;;1.68;68.22;-19784.09;5012561;28;20317;-57
2022/04/03 00:22:29;;;;;;;2.53;1.90;;;0.90;99.90;;;1.64;68.26;-19782.72;5013145;28;20241;-58
2022/04/03 00:24:57;;;;;;;2.10;1.90;;;0.90;99.90;;;1.84;68.11;-19789.56;5012965;28;20652;-58
2022/04/03 00:27:25;;;;;;;2.20;2.00;;;0.90;99.90;;;1.72;68.49;-19785.47;5012827;28;20243;-58
2022/04/03 00:29:53;;;;;;;4.20;2.13;;;0.90;99.90;;;1.81;68.02;-19788.38;5013678;28;20202;-58
2022/04/03 00:32:21;;;;;;;2.77;1.93;;;1.00;99.90;;;1.63;68.29;-19782.38;5012612;28;20312;-57
2022/04/03 00:34:49;;;;;;;1.90;1.70;;;1.00;99.90;;;1.70;68.51;-19784.78;5012199;28;20419;-58
2022/04/03 00:37:17;;;;;;;2.93;2.07;;;0.90;99.90;;;1.73;68.78;-19785.63;5013162;28;20321;-58
2022/04/03 00:39:47;;;;;;;2.70;2.00;;;0.90;99.90;;;1.63;68.82;-19782.22;5013300;28;20228;-58
2022/04/03 00:42:15;;;;;;;2.77;1.80;;;0.90;99.90;;;1.67;69.24;-19783.59;5012729;28;20855;-60
2022/04/03 00:44:43;;;;;;;1.93;1.63;;;0.90;99.90;;;1.58;68.61;-19780.69;5013220;28;20237;-57
2022/04/03 00:47:13;;;;;;;2.20;2.00;;;0.90;99.90;;;1.55;69.43;-19779.47;5012413;28;20226;-56
2022/04/03 00:49:41;;;;;;;2.40;2.10;;;0.80;99.90;;;1.36;70.05;-19773.16;5012161;28;20629;-56
2022/04/03 00:52:09;;;;;;;2.80;1.70;;;0.70;99.90;;;1.41;70.24;-19774.88;5012331;28;20340;-57
2022/04/03 00:54:38;;;;;;;2.93;1.87;;;0.70;99.90;;;1.59;69.76;-19780.84;5012327;28;20236;-55
2022/04/03 00:57:09;;;;;;;1.70;1.40;;;0.70;99.90;;;1.44;69.94;-19775.88;5011582;28;20290;-57
2022/04/03 00:59:37;;;;;;;2.77;1.93;;;0.70;99.90;;;1.37;70.19;-19773.34;5012677;28;20242;-56
2022/04/03 01:02:05;;;;;;;4.13;2.00;;;0.70;99.90;;;1.23;70.63;-19768.88;5011974;28;20233;-56
2022/04/03 01:04:34;;;;;;;2.37;1.80;;;0.60;99.90;;;1.07;72.20;-19763.25;5011934;28;20706;-53
2022/04/03 01:07:02;;;;;;;2.03;1.50;;;0.50;99.90;;;0.99;72.07;-19760.69;5011799;28;20740;-54
2022/04/03 01:09:30;;;;;;;3.00;1.80;;;0.40;99.90;;;1.24;71.43;-19769.06;5011945;28;20340;-53
2022/04/03 01:11:58;;;;;;;3.90;1.90;;;0.50;99.90;;;0.85;72.70;-19755.72;5012765;28;20233;-53
2022/04/03 01:14:39;;;;;;;3.30;2.00;;;0.40;99.90;;;1.05;72.25;-19762.72;5011856;28;20273;-55
2022/04/03 01:17:11;;;;;;;1.97;1.60;;;0.40;99.90;;;1.13;71.62;-19765.28;5011726;28;20236;-55
2022/04/03 01:19:39;;;;;;;2.17;1.63;;;0.40;99.90;;;1.21;71.62;-19768.03;5012114;28;20245;-52
2022/04/03 01:22:08;;;;;;;4.30;1.80;;;0.40;99.90;;;1.13;72.15;-19765.47;5011685;28;20234;-54
2022/04/03 01:24:36;;;;;;;2.30;1.87;;;0.40;99.90;;;0.85;73.41;-19755.88;5011985;28;20227;-58
2022/04/03 01:27:07;;;;;;;4.67;1.80;;;0.30;99.90;;;0.81;72.97;-19754.53;5011328;28;20227;-57
2022/04/03 01:29:35;;;;;;;2.47;1.83;;;0.20;99.90;;;0.76;73.59;-19752.66;5011216;28;20219;-57
2022/04/03 01:32:04;;;;;;;3.00;1.73;;;0.20;99.90;;;0.85;73.45;-19755.88;5010188;28;20236;-58
2022/04/03 01:34:32;;;;;;;2.33;1.90;;;0.10;99.90;;;0.85;73.81;-19755.72;5010799;28;20313;-53
2022/04/03 01:37:01;;;;;;;4.10;1.93;;;0.10;99.90;;;0.65;74.60;-19749.06;5010728;28;20235;-54
2022/04/03 01:39:29;;;;;;;2.43;2.10;;;0.10;99.90;;;0.70;74.91;-19750.59;5010646;28;20690;-54
2022/04/03 01:41:57;;;;;;;2.53;2.00;;;0.00;99.90;;;0.22;76.87;-19734.19;5010720;28;20681;-55
2022/04/03 01:44:26;;;;;;;4.87;2.10;;;-0.10;99.90;;;0.58;76.33;-19746.47;5010511;28;20225;-55
2022/04/03 01:46:54;;;;;;;3.27;2.20;;;-0.20;99.90;;;0.64;76.03;-19748.53;5010052;28;20312;-55
2022/04/03 01:49:38;;;;;;;2.50;2.20;;;-0.10;99.90;;;0.52;76.35;-19744.44;5003138;28;20326;-55
2022/04/03 01:52:07;;;;;;;5.20;2.50;;;-0.10;99.90;;;0.26;77.90;-19735.72;5001293;28;20252;-55
2022/04/03 01:54:35;;;;;;;2.57;2.10;;;-0.30;99.90;;;0.44;77.21;-19741.69;5012155;28;20226;-53
2022/04/03 01:57:03;;;;;;;4.27;2.10;;;-0.20;99.90;;;0.43;77.51;-19741.34;5012664;28;20207;-56
2022/04/03 01:59:32;;;;;;;2.83;2.30;;;-0.30;99.90;;;0.41;77.67;-19740.66;5012168;28;20640;-56
2022/04/03 02:02:00;;;;;;;3.90;2.23;;;-0.30;99.90;;;0.35;78.77;-19738.63;5011177;28;20317;-57
2022/04/03 02:04:28;;;;;;;3.30;2.47;;;-0.30;99.90;;;0.23;78.19;-19734.69;5011629;28;20232;-57
2022/04/03 02:06:57;;;;;;;3.00;2.13;;;-0.40;99.90;;;0.11;79.86;-19730.41;5011825;28;20532;-57
2022/04/03 02:09:26;;;;;;;2.47;2.20;;;-0.50;99.90;;;0.25;79.11;-19735.19;5011644;28;20246;-58
2022/04/03 02:11:54;;;;;;;3.47;2.33;;;-0.50;99.90;;;0.20;79.79;-19733.66;5012345;28;20292;-57
2022/04/03 02:14:24;;;;;;;3.50;2.63;;;-0.50;99.90;;;0.23;80.14;-19734.53;5011632;28;20225;-58
2022/04/03 02:16:57;;;;;;;4.17;2.47;;;-0.50;99.90;;;0.19;80.33;-19733.16;5010906;28;20654;-55
2022/04/03 02:19:26;;;;;;;3.77;2.33;;;-0.60;99.90;;;-0.07;81.47;-19724.44;5011509;28;20257;-56
2022/04/03 02:21:54;;;;;;;6.30;2.13;;;-0.60;99.90;;;-0.07;81.81;-19724.59;5011366;28;20333;-55
2022/04/03 02:24:22;;;;;;;3.30;2.30;;;-0.70;99.90;;;-0.04;81.99;-19725.47;5011552;28;20210;-55
2022/04/03 02:26:50;;;;;;;2.27;2.07;;;-0.70;99.90;;;-0.19;82.79;-19720.50;5012348;28;20198;-55
2022/04/03 02:29:18;;;;;;;3.20;2.30;;;-0.70;99.90;;;0.11;82.19;-19730.59;5011605;28;20960;-55
2022/04/03 02:31:46;;;;;;;3.67;2.10;;;-0.70;99.90;;;-0.15;82.39;-19721.69;5011039;28;21011;-59
2022/04/03 02:34:17;;;;;;;3.87;2.43;;;-0.80;99.90;;;-0.13;82.92;-19722.38;5011880;28;20266;-56
2022/04/03 02:36:45;;;;;;;2.63;2.40;;;-0.80;99.90;;;-0.24;83.36;-19718.63;5009582;28;20218;-55
2022/04/03 02:39:13;;;;;;;2.87;2.20;;;-0.80;99.90;;;0.08;82.74;-19729.38;5011865;28;20242;-54
2022/04/03 02:41:41;;;;;;;3.77;2.07;;;-0.80;99.90;;;-0.14;83.04;-19722.22;5012262;28;20312;-57
2022/04/03 02:44:09;;;;;;;3.00;2.10;;;-0.80;99.90;;;-0.45;84.86;-19711.59;5011677;28;20253;-56
2022/04/03 02:46:38;;;;;;;3.07;2.10;;;-0.90;99.90;;;-0.12;84.68;-19722.88;5011073;28;20652;-57
2022/04/03 02:49:08;;;;;;;3.30;2.17;;;-0.90;99.90;;;-0.29;84.90;-19717.06;5011318;28;20436;-57
2022/04/03 02:51:37;;;;;;;3.23;2.10;;;-0.90;99.90;;;-0.05;84.58;-19725.28;5012033;28;20327;-55
2022/04/03 02:54:05;;;;;;;4.07;2.20;;;-0.90;99.90;;;-0.16;84.86;-19721.53;5011882;28;20297;-56
2022/04/03 02:56:33;;;;;;;2.30;2.10;;;-0.90;99.90;;;-0.33;85.10;-19715.53;5012340;28;20206;-55
2022/04/03 02:59:02;;;;;;;4.03;2.53;;;-0.90;99.90;;;-0.36;87.09;-19714.69;5011366;28;20226;-55
2022/04/03 03:01:30;;;;;;;3.37;2.13;;;-1.00;99.90;;;-0.27;85.79;-19717.59;5010905;28;20334;-56
2022/04/03 03:03:59;;;;;;;4.57;2.57;;;-0.90;99.90;;;-0.46;86.73;-19711.28;5011243;28;20236;-57
2022/04/03 03:06:26;;;;;;;4.73;2.33;;;-1.00;99.90;;;-0.44;88.12;-19711.78;5010861;28;20233;-58
2022/04/03 03:08:56;;;;;;;4.47;2.13;;;-1.10;99.90;;;-0.37;87.59;-19714.16;5011877;28;20630;-58
2022/04/03 03:11:24;;;;;;;4.03;2.57;;;-1.00;99.90;;;-0.50;88.63;-19709.91;5011369;28;20322;-58
2022/04/03 03:13:52;;;;;;;3.10;2.53;;;-1.10;99.90;;;-0.45;90.04;-19711.59;5011265;28;20319;-54
2022/04/03 03:16:20;;;;;;;4.40;2.60;;;-1.10;99.90;;;-0.52;90.60;-19709.22;5010769;28;20370;-55
2022/04/03 03:18:48;;;;;;;3.47;2.80;;;-1.20;99.90;;;-0.56;89.81;-19707.84;5011086;28;20225;-56
2022/04/03 03:21:16;;;;;;;3.90;2.60;;;-1.20;99.90;;;-0.61;90.54;-19706.13;5013486;28;20231;-56
2022/04/03 03:23:44;;;;;;;3.57;2.37;;;-1.20;99.90;;;-0.42;90.06;-19712.47;5015045;28;20208;-57
2022/04/03 03:26:14;;;;;;;3.87;2.80;;;-1.20;99.90;;;-0.77;91.36;-19700.66;5014337;28;20230;-57
2022/04/03 03:28:42;;;;;;;4.20;2.40;;;-1.20;99.90;;;-0.86;92.28;-19697.41;5014289;28;20257;-54
2022/04/03 03:31:10;;;;;;;4.30;2.87;;;-1.30;99.90;;;-0.83;92.80;-19698.44;5014052;28;20317;-57
2022/04/03 03:33:38;;;;;;;3.70;2.73;;;-1.40;99.90;;;-0.80;91.15;-19699.63;5014195;28;20308;-53
2022/04/03 03:36:09;;;;;;;3.77;2.80;;;-1.40;99.90;;;-0.67;90.48;-19704.09;5014389;28;20198;-55
2022/04/03 03:38:37;;;;;;;4.37;2.80;;;-1.40;99.90;;;-0.86;90.91;-19697.41;5015089;28;20201;-56
2022/04/03 03:41:05;;;;;;;2.90;2.60;;;-1.50;99.90;;;-0.86;91.05;-19697.41;5014391;28;20313;-54
2022/04/03 03:43:35;;;;;;;3.17;2.63;;;-1.50;99.90;;;-0.77;91.44;-19700.50;5014183;28;20310;-55
2022/04/03 03:46:03;;;;;;;3.60;2.40;;;-1.50;99.90;;;-0.88;90.91;-19696.72;5013603;28;20345;-60
2022/04/03 03:48:31;;;;;;;3.80;2.80;;;-1.50;99.90;;;-0.99;90.70;-19692.97;5013744;28;20315;-55
2022/04/03 03:51:00;;;;;;;3.77;2.90;;;-1.60;99.90;;;-0.88;90.77;-19696.91;5014030;28;20223;-55
2022/04/03 03:53:28;;;;;;;4.13;2.90;;;-1.60;99.90;;;-1.14;91.57;-19687.84;5013002;28;20231;-56
2022/04/03 03:55:57;;;;;;;4.30;3.07;;;-1.60;99.90;;;-1.30;93.33;-19682.72;5013738;28;20366;-55
2022/04/03 03:58:25;;;;;;;4.67;2.60;;;-1.70;99.90;;;-1.15;93.49;-19687.50;5013390;28;20250;-56
2022/04/03 04:00:55;;;;;;;4.03;2.80;;;-1.80;99.90;;;-1.10;92.84;-19689.22;5013335;28;20290;-55
2022/04/03 04:03:23;;;;;;;4.63;3.20;;;-1.80;99.90;;;-1.09;92.86;-19689.56;5013672;28;20297;-56
2022/04/03 04:05:51;;;;;;;3.70;2.67;;;-1.80;99.90;;;-1.28;92.96;-19683.22;5014120;28;20253;-55
2022/04/03 04:08:19;;;;;;;3.63;2.37;;;-1.80;99.90;;;-1.27;93.80;-19683.56;5013277;28;20239;-55
2022/04/03 04:10:47;;;;;;;4.37;2.80;;;-1.90;99.90;;;-1.17;92.43;-19686.81;5013493;28;20242;-55
2022/04/03 04:13:15;;;;;;;3.73;2.90;;;-1.80;99.90;;;-1.21;91.16;-19685.63;5013600;28;20236;-56
2022/04/03 04:15:43;;;;;;;4.07;3.07;;;-1.80;99.90;;;-1.23;91.00;-19684.78;5013107;28;20258;-55
2022/04/03 04:18:13;;;;;;;3.17;2.83;;;-1.80;99.90;;;-1.28;92.31;-19683.22;5013766;28;20203;-55
2022/04/03 04:20:42;;;;;;;3.70;2.70;;;-1.90;99.90;;;-1.32;91.23;-19682.03;5013626;28;20187;-57
2022/04/03 04:23:10;;;;;;;3.90;2.77;;;-1.90;99.90;;;-1.25;91.58;-19684.41;5012525;28;20733;-56
2022/04/03 04:25:38;;;;;;;4.40;2.77;;;-1.90;99.90;;;-1.25;90.39;-19684.41;5012603;28;20227;-55
2022/04/03 04:28:07;;;;;;;4.17;2.73;;;-1.90;99.90;;;-1.30;89.82;-19682.53;5012746;28;20314;-57
2022/04/03 04:30:37;;;;;;;4.13;2.60;;;-1.90;99.90;;;-1.20;89.39;-19685.78;5012339;28;20227;-55
2022/04/03 04:33:06;;;;;;;4.33;2.73;;;-1.90;99.90;;;-1.38;90.29;-19679.97;5012875;28;20606;-57
2022/04/03 04:35:35;;;;;;;3.50;2.77;;;-2.00;99.90;;;-1.27;91.00;-19683.56;5013246;28;20306;-55
2022/04/03 04:38:03;;;;;;;4.83;3.00;;;-2.00;99.90;;;-1.58;91.95;-19672.97;5012910;28;20315;-55
2022/04/03 04:40:32;;;;;;;4.17;3.00;;;-2.00;99.90;;;-1.69;93.39;-19669.22;5013101;28;20243;-55
2022/04/03 04:43:00;;;;;;;4.40;2.83;;;-2.10;99.90;;;-1.67;94.19;-19669.88;5013089;28;20252;-57
2022/04/03 04:45:28;;;;;;;4.03;3.00;;;-2.20;99.90;;;-1.66;93.48;-19670.22;5012482;28;20323;-57
2022/04/03 04:47:59;;;;;;;3.33;2.87;;;-2.20;99.90;;;-1.37;91.82;-19680.16;5013095;28;20648;-57
2022/04/03 04:50:31;;;;;;;4.47;2.70;;;-2.10;99.90;;;-1.40;92.03;-19679.28;5012236;28;20314;-55
2022/04/03 04:53:00;;;;;;;3.97;2.63;;;-2.10;99.90;;;-1.66;92.19;-19670.22;5012568;28;20323;-59
2022/04/03 04:55:28;;;;;;;3.30;2.93;;;-2.10;99.90;;;-1.49;92.09;-19676.03;5012604;28;20491;-56
2022/04/03 04:57:58;;;;;;;4.23;3.03;;;-2.10;99.90;;;-1.50;92.22;-19675.88;5012767;28;20246;-54
2022/04/03 05:00:30;;;;;;;5.63;3.20;;;-2.10;99.90;;;-1.64;92.73;-19670.91;5012094;28;20315;-55
2022/04/03 05:02:59;;;;;;;5.77;3.20;;;-2.10;99.90;;;-1.73;93.06;-19667.84;5013182;28;20183;-56
2022/04/03 05:05:29;;;;;;;4.40;2.90;;;-2.10;99.90;;;-1.57;92.84;-19673.47;5012161;28;20245;-57
2022/04/03 05:08:00;;;;;;;5.20;3.33;;;-2.10;99.90;;;-1.43;91.59;-19678.09;5013191;28;20234;-56
2022/04/03 05:10:32;;;;;;;4.50;2.80;;;-2.10;99.90;;;-1.37;90.50;-19680.16;5012503;28;20320;-54
2022/04/03 05:13:02;;;;;;;6.07;3.10;;;-2.00;99.90;;;-1.33;90.75;-19681.50;5012799;28;20220;-57
2022/04/03 05:15:31;;;;;;;7.40;3.47;;;-2.00;99.90;;;-1.28;90.01;-19683.22;5011841;28;20329;-57
2022/04/03 05:17:59;;;;;;;4.30;2.87;;;-1.90;99.90;;;-1.26;89.45;-19683.91;5012835;28;20239;-56
2022/04/03 05:20:28;;;;;;;5.33;3.20;;;-1.90;99.90;;;-1.41;90.11;-19678.78;5012012;28;20305;-55
2022/04/03 05:22:56;;;;;;;4.17;3.00;;;-1.90;99.90;;;-1.34;89.82;-19681.19;5011954;28;20326;-56
2022/04/03 05:25:26;;;;;;;5.00;2.77;;;-1.90;99.90;;;-1.22;89.49;-19685.44;5011969;28;20230;-56
2022/04/03 05:27:55;;;;;;;3.70;2.90;;;-1.80;99.90;;;-1.08;88.24;-19689.91;5012231;28;20722;-57
2022/04/03 05:30:24;;;;;;;4.20;2.93;;;-1.70;99.90;;;-0.97;87.60;-19693.66;5011478;28;20315;-56
2022/04/03 05:32:52;;;;;;;4.20;3.30;;;-1.60;99.90;;;-0.76;85.47;-19701.00;5012651;28;20326;-57
2022/04/03 05:35:20;;;;;;;5.17;3.07;;;-1.50;99.90;;;-0.51;84.10;-19709.56;5011738;28;20353;-58
2022/04/03 05:37:48;;;;;;;5.20;2.97;;;-1.40;99.90;;;-0.56;84.04;-19707.84;5011811;28;20237;-54
2022/04/03 05:40:16;;;;;;;4.60;2.70;;;-1.30;99.90;;;-0.37;82.94;-19714.16;5011977;28;20308;-57
2022/04/03 05:42:45;;;;;;;3.30;2.87;;;-1.10;99.90;;;-0.07;81.37;-19724.44;5011606;28;20311;-56
2022/04/03 05:45:14;;;;;;;3.83;3.13;;;-0.90;99.90;;;-0.01;80.30;-19726.47;5011277;28;20662;-58
2022/04/03 05:47:42;;;;;;;4.60;3.10;;;-0.80;99.90;;;0.14;78.66;-19731.59;5012406;28;20253;-55
2022/04/03 05:50:14;;;;;;;3.27;2.97;;;-0.60;99.90;;;0.67;76.26;-19749.75;5011380;28;20240;-55
2022/04/03 05:52:47;;;;;;;3.40;2.57;;;-0.40;99.90;;;1.07;73.66;-19763.25;5011708;28;20236;-58
2022/04/03 05:55:16;;;;;;;3.40;2.70;;;0.00;99.90;;;1.21;73.31;-19768.03;4993891;28;20608;-56
2022/04/03 05:57:49;;;;;;;2.93;2.70;;;0.20;99.90;;;1.51;71.42;-19778.13;4992242;28;20683;-56
2022/04/03 06:00:20;;;;;;;3.67;2.67;;;0.50;99.90;;;1.66;69.54;-19783.25;4991529;28;20238;-58
2022/04/03 06:02:51;;;;;;;3.50;2.90;;;0.70;99.90;;;1.68;69.44;-19784.09;4992823;28;20617;-58
2022/04/03 06:05:21;;;;;;;4.10;3.27;;;0.80;99.90;;;1.78;69.32;-19787.34;4991761;28;20265;-59
2022/04/03 06:07:50;;;;;;;4.57;3.40;;;0.90;99.90;;;1.98;68.61;-19794.19;5006250;28;20311;-57
2022/04/03 06:10:21;;;;;;;4.00;3.03;;;1.00;99.90;;;1.91;67.94;-19791.97;5011444;28;20225;-58
2022/04/03 06:12:55;;;;;;;3.50;2.90;;;0.90;99.90;;;1.94;67.84;-19792.81;5011621;28;20693;-57
2022/04/03 06:15:26;;;;;;;3.63;2.60;;;0.90;99.90;;;1.92;67.47;-19792.31;5011014;28;20207;-56
2022/04/03 06:17:54;;;;;;;5.03;2.60;;;0.90;99.90;;;1.88;66.59;-19790.94;5012407;28;20268;-57
2022/04/03 06:20:23;;;;;;;4.03;2.40;;;0.90;99.90;;;2.01;66.54;-19795.38;5011261;28;20256;-57
2022/04/03 06:22:52;;;;;;;3.47;2.83;;;0.90;99.90;;;1.99;66.91;-19794.53;5011313;28;20235;-57
2022/04/03 06:25:21;;;;;;;3.20;2.60;;;1.00;99.90;;;1.87;67.75;-19790.44;5011485;28;20219;-58
2022/04/03 06:27:49;;;;;;;3.30;2.70;;;1.00;99.90;;;1.93;66.66;-19792.66;5011719;28;20315;-57
2022/04/03 06:30:18;;;;;;;2.73;2.37;;;0.90;99.90;;;2.13;65.70;-19799.31;5011576;28;20301;-59
2022/04/03 06:32:47;;;;;;;2.87;2.30;;;1.00;99.90;;;2.06;66.14;-19797.09;5011784;28;20205;-59
2022/04/03 06:35:15;;;;;;;3.10;2.47;;;1.10;99.90;;;2.39;65.32;-19808.38;5011381;28;20272;-56
2022/04/03 06:37:43;;;;;;;4.50;2.50;;;1.20;99.90;;;2.34;64.06;-19806.66;5011095;28;20236;-54
2022/04/03 06:40:13;;;;;;;3.10;2.40;;;1.30;99.90;;;2.49;62.77;-19811.78;5011472;28;20237;-58
2022/04/03 06:42:43;;;;;;;3.27;2.40;;;1.30;99.90;;;2.73;62.09;-19819.66;5011401;28;20783;-57
2022/04/03 06:45:12;;;;;;;4.60;2.60;;;1.40;99.90;;;2.64;62.56;-19816.59;5010812;28;20802;-59
2022/04/03 06:47:42;;;;;;;4.27;2.90;;;1.50;99.90;;;2.78;62.11;-19821.53;5011467;28;20768;-55
2022/04/03 06:50:11;;;;;;;5.77;3.10;;;1.60;99.90;;;2.86;62.53;-19824.09;5011192;28;20255;-59
2022/04/03 06:52:39;;;;;;;4.10;2.73;;;1.70;99.90;;;2.88;62.38;-19824.97;5011035;28;20237;-58
2022/04/03 06:55:09;;;;;;;4.03;2.97;;;1.60;99.90;;;2.90;62.42;-19825.63;5012253;28;20223;-58
2022/04/03 06:57:37;;;;;;;3.83;2.57;;;1.60;99.90;;;2.87;61.69;-19824.44;5015102;28;20302;-58
2022/04/03 07:00:08;;;;;;;3.20;2.60;;;1.70;99.90;;;3.13;61.05;-19833.50;5014525;28;20201;-57
2022/04/03 07:02:37;;;;;;;3.57;2.37;;;1.90;99.90;;;3.23;60.77;-19836.75;5015472;28;20191;-58
2022/04/03 07:05:09;;;;;;;2.70;2.30;;;2.00;99.90;;;3.47;60.05;-19844.97;5014603;28;20231;-58
2022/04/03 07:07:37;;;;;;;3.40;2.20;;;2.20;99.90;;;3.69;58.79;-19852.47;5014667;28;20230;-59
2022/04/03 07:10:07;;;;;;;3.00;2.43;;;2.40;99.90;;;4.12;57.49;-19867.19;5014901;28;20237;-59
2022/04/03 07:12:36;;;;;;;3.27;2.43;;;2.60;99.90;;;4.09;56.13;-19866.16;5015040;28;20402;-56
2022/04/03 07:15:08;;;;;;;3.77;2.20;;;2.80;99.90;;;4.05;56.72;-19864.78;5014830;28;20239;-57
2022/04/03 07:17:37;;;;;;;3.20;2.37;;;2.70;99.90;;;3.99;56.34;-19862.72;5015093;28;20264;-57
2022/04/03 07:20:08;;;;;;;2.63;2.40;;;2.70;99.90;;;4.03;55.98;-19864.09;5014307;28;20932;-58
2022/04/03 07:22:36;;;;;;;3.53;2.50;;;2.70;99.90;;;4.18;55.55;-19869.22;5014537;28;20333;-56
2022/04/03 07:25:05;;;;;;;4.23;2.37;;;2.80;99.90;;;4.41;54.93;-19876.94;5014993;28;20232;-58
2022/04/03 07:27:33;;;;;;;2.23;1.93;;;3.00;99.90;;;4.51;54.53;-19880.50;5014490;28;20223;-58
2022/04/03 07:30:01;;;;;;;3.37;2.07;;;3.20;99.90;;;5.04;52.49;-19898.28;5013565;28;20207;-59
2022/04/03 07:32:29;;;;;;;2.87;1.90;;;3.40;99.90;;;5.32;51.50;-19908.03;5013363;28;20393;-55
2022/04/03 07:34:57;;;;;;;3.17;2.30;;;3.60;99.90;;;5.42;50.65;-19911.28;5013606;28;20325;-56
2022/04/03 07:37:26;;;;;;;4.17;2.60;;;3.90;99.90;;;5.45;51.05;-19912.31;5013191;28;20229;-58
2022/04/03 07:39:54;;;;;;;3.50;2.20;;;4.00;99.90;;;5.31;50.43;-19907.53;5013656;28;20221;-58
2022/04/03 07:42:22;;;;;;;2.53;2.23;;;4.00;99.90;;;5.31;51.51;-19907.53;5001645;28;20326;-60
2022/04/03 07:44:50;;;;;;;3.10;2.70;;;3.90;99.90;;;5.48;51.92;-19913.34;5003329;28;20287;-57
2022/04/03 07:47:19;;;;;;;6.30;2.67;;;4.10;99.90;;;5.67;50.47;-19920.00;5013269;28;20223;-59
2022/04/03 07:49:47;;;;;;;2.40;2.20;;;4.10;99.90;;;5.64;50.80;-19918.78;5013110;28;20269;-60
2022/04/03 07:52:15;;;;;;;3.30;2.80;;;4.10;99.90;;;5.62;50.54;-19918.13;5012716;28;20236;-58
2022/04/03 07:54:45;;;;;;;4.60;2.70;;;4.20;99.90;;;5.46;51.36;-19912.81;5013373;28;20723;-59
2022/04/03 07:57:13;;;;;;;3.40;2.40;;;4.10;99.90;;;5.32;51.30;-19908.03;5013271;28;20239;-59
2022/04/03 07:59:42;;;;;;;3.50;2.40;;;4.10;99.90;;;4.97;53.04;-19896.22;5013494;28;20213;-61
2022/04/03 08:02:10;;;;;;;4.10;2.40;;;3.90;99.90;;;4.69;51.51;-19886.50;5012836;28;20584;-57
2022/04/03 08:04:38;;;;;;;5.00;2.90;;;3.70;99.90;;;4.40;52.43;-19876.75;5012984;28;20236;-57
2022/04/03 08:07:06;;;;;;;4.47;2.47;;;3.50;99.90;;;4.05;52.60;-19864.78;5012086;28;20698;-58
2022/04/03 08:09:34;;;;;;;2.57;2.20;;;3.20;99.90;;;4.19;52.65;-19869.56;5013018;28;20363;-57
2022/04/03 08:12:04;;;;;;;3.10;2.80;;;3.20;99.90;;;4.17;52.04;-19868.72;5013500;28;20232;-60
2022/04/03 08:14:32;;;;;;;3.50;2.50;;;3.10;99.90;;;4.52;51.56;-19880.69;5013005;28;20246;-59
2022/04/03 08:17:00;;;;;;;3.50;2.67;;;3.30;99.90;;;4.62;51.52;-19884.09;5012891;28;20751;-55
2022/04/03 08:19:28;;;;;;;7.77;2.47;;;3.40;99.90;;;4.80;51.77;-19890.41;5012476;28;20256;-58
2022/04/03 08:21:56;;;;;;;2.83;2.10;;;3.60;99.90;;;5.17;50.16;-19902.91;5012389;28;20306;-60
2022/04/03 08:24:24;;;;;;;3.10;2.50;;;3.80;99.90;;;5.43;49.81;-19911.78;5012539;28;20638;-60
2022/04/03 08:26:53;;;;;;;2.23;2.03;;;4.10;99.90;;;5.75;48.72;-19922.72;5013293;28;20287;-56
2022/04/03 08:29:22;;;;;;;2.50;2.10;;;4.30;99.90;;;6.03;48.27;-19932.13;5012161;28;20224;-57
2022/04/03 08:31:50;;;;;;;5.20;2.20;;;4.50;99.90;;;5.86;47.51;-19926.50;5012463;28;20607;-58
2022/04/03 08:34:18;;;;;;;2.53;1.90;;;4.60;99.90;;;5.91;47.17;-19928.03;5012299;28;20747;-59
2022/04/03 08:37:07;;;;;;;2.37;1.70;;;4.60;99.90;;;6.01;45.23;-19931.63;5012082;28;20226;-59
2022/04/03 08:39:35;;;;;;;2.27;1.90;;;4.70;99.90;;;5.93;46.13;-19928.72;5012283;28;20621;-60
2022/04/03 08:42:05;;;;;;;2.50;2.00;;;4.70;99.90;;;6.21;45.81;-19938.28;5012992;28;20289;-59
2022/04/03 08:44:34;;;;;;;2.17;1.97;;;4.90;99.90;;;6.08;46.21;-19933.84;5012309;28;20290;-58
2022/04/03 08:47:07;;;;;;;2.97;2.07;;;4.90;99.90;;;5.89;46.34;-19927.53;5012138;28;20322;-57
2022/04/03 08:49:41;;;;;;;2.00;1.80;;;4.80;99.90;;;5.89;46.59;-19927.53;5011821;28;20307;-55
2022/04/03 08:52:13;;;;;;;2.43;2.00;;;4.80;99.90;;;6.00;46.53;-19931.13;5012130;28;20259;-55
2022/04/03 08:54:43;;;;;;;1.60;1.47;;;4.80;99.90;;;6.03;43.65;-19932.13;5012005;28;20772;-58
2022/04/03 08:57:11;;;;;;;2.40;1.83;;;4.80;99.90;;;6.20;40.15;-19937.94;5012121;28;20204;-57
2022/04/03 08:59:40;;;;;;;2.43;1.80;;;4.90;99.90;;;6.20;40.59;-19937.94;5012364;28;20298;-60
2022/04/03 09:02:08;;;;;;;2.20;1.43;;;4.90;99.90;;;6.47;39.40;-19947.19;5012042;28;20316;-60
2022/04/03 09:04:38;;;;;;;1.60;1.30;;;5.10;99.90;;;6.62;38.14;-19952.13;5011873;28;20239;-58
2022/04/03 09:07:06;;;;;;;2.73;1.60;;;5.20;99.90;;;6.74;38.45;-19956.41;5011824;28;20291;-57
2022/04/03 09:09:34;;;;;;;1.93;1.57;;;5.30;99.90;;;6.93;39.68;-19962.72;5011824;28;20760;-57
2022/04/03 09:12:10;;;;;;;2.13;1.90;;;5.40;99.90;;;7.29;39.56;-19975.19;5010781;28;20237;-59
2022/04/03 09:14:48;;;;;;;1.77;1.57;;;5.60;99.90;;;7.44;39.15;-19980.31;5011564;28;20220;-58
2022/04/03 09:17:34;;;;;;;3.17;1.80;;;5.90;99.90;;;7.77;38.89;-19991.44;5011280;28;20255;-57
2022/04/03 09:20:05;;;;;;;1.83;1.53;;;6.00;99.90;;;7.61;38.22;-19985.78;5011120;28;20256;-57
2022/04/03 09:22:35;;;;;;;1.90;1.40;;;6.00;99.90;;;7.34;38.69;-19976.72;5011285;28;20234;-57
2022/04/03 09:25:05;;;;;;;1.27;1.10;;;6.00;99.90;;;6.95;38.52;-19963.41;5010280;28;20293;-59
2022/04/03 09:27:35;;;;;;;1.93;1.60;;;5.80;99.90;;;6.83;39.00;-19959.31;4991317;28;20226;-59
2022/04/03 09:30:08;;;;;;;2.07;1.50;;;5.70;99.90;;;6.54;40.56;-19949.41;4992244;28;20282;-58
2022/04/03 09:32:46;;;;;;;2.37;1.80;;;5.40;99.90;;;6.22;41.90;-19938.63;4992232;28;20225;-55
2022/04/03 09:35:15;;;;;;;2.50;1.97;;;5.20;99.90;;;5.96;43.34;-19929.75;4991422;28;20321;-58
2022/04/03 09:38:12;;;;;;;2.47;1.80;;;5.00;99.90;;;6.08;44.28;-19933.84;5003809;28;20773;-58
2022/04/03 09:40:43;;;;;;;2.67;1.70;;;4.90;99.90;;;6.31;43.06;-19941.53;5010514;28;20318;-59
2022/04/03 09:43:22;;;;;;;1.73;1.60;;;4.90;99.90;;;6.19;42.55;-19937.78;5009752;28;20260;-58
2022/04/03 09:45:54;;;;;;;1.67;1.57;;;4.90;99.90;;;6.29;42.97;-19941.03;5010002;28;20227;-57
2022/04/03 09:48:28;;;;;;;2.27;1.60;;;4.90;99.90;;;6.55;42.23;-19949.91;5011526;28;20295;-57
2022/04/03 09:51:05;;;;;;;1.87;1.60;;;5.10;99.90;;;6.91;39.89;-19962.03;5010342;28;20563;-58
2022/04/03 09:53:43;;;;;;;1.50;1.40;;;5.20;99.90;;;6.99;39.58;-19964.78;5011851;28;20260;-56
2022/04/03 09:56:14;;;;;;;3.07;1.53;;;5.40;99.90;;;6.68;40.15;-19954.34;5011535;28;20327;-57
2022/04/03 09:59:00;;;;;;;3.23;1.80;;;5.50;99.90;;;6.48;41.30;-19947.34;5010724;28;20232;-57
2022/04/03 10:01:34;;;;;;;4.37;1.60;;;5.30;99.90;;;6.60;41.19;-19951.63;4991655;28;20729;-57
2022/04/03 10:04:05;;;;;;;1.60;1.50;;;5.40;99.90;;;6.84;39.03;-19959.81;4991833;28;20245;-56
2022/04/03 10:06:34;;;;;;;2.20;1.80;;;5.40;99.90;;;6.91;39.22;-19962.22;4994597;28;20284;-57
2022/04/03 10:09:04;;;;;;;2.97;1.60;;;5.60;99.90;;;7.30;38.77;-19975.38;5011698;28;20582;-58
2022/04/03 10:11:32;;;;;;;1.87;1.63;;;5.80;99.90;;;7.66;37.34;-19987.66;5011354;28;20294;-57
2022/04/03 10:14:02;;;;;;;1.73;1.60;;;6.10;99.90;;;7.37;37.25;-19977.94;5010605;28;20325;-58
2022/04/03 10:16:31;;;;;;;3.07;1.67;;;6.10;99.90;;;7.08;37.13;-19968.03;5010392;28;20239;-57
2022/04/03 10:19:00;;;;;;;2.13;1.63;;;6.00;99.90;;;6.93;36.87;-19962.91;5010788;28;20254;-59
2022/04/03 10:21:37;;;;;;;2.20;1.60;;;5.90;99.90;;;7.07;36.77;-19967.69;5010685;28;20300;-60
2022/04/03 10:24:13;;;;;;;1.60;1.47;;;5.80;99.90;;;7.86;36.26;-19994.34;5011083;28;20366;-57
2022/04/03 10:26:47;;;;;;;1.67;1.57;;;6.10;99.90;;;8.62;34.82;-20020.31;5011064;28;20251;-58
2022/04/03 10:29:15;;;;;;;2.43;1.83;;;6.60;99.90;;;8.38;34.24;-20012.09;5011916;28;20226;-59